Current Conditions
Light Rain
Showers



Pressure
1028.92 (hPa) - 30.38 (inHG)
Visibility

10.0 (km) - 6.2 (miles)
   Temperature
6  °C
Temperature
4  °C
Dewpoint
87  %
 Humidity
   Wind Speed
19  km/h
10  kts
12  mph
5.4  m/s
   Wind Direction
N
45°
E
90°
135°
S
180°
225°
W
270°
315°
 30°

North North
East
   Airport Data
LTBA
İstanbul Atatürk Airport
Metar :LTBA 012220Z 03010KT 9999 -SHRA FEW012 BKN030 BKN070 06/04 Q1029 NOSIG RMK RWY23 02012KT
Tue 2nd March 01:20 am
   Raw Metar Info
Raw METAR is the most common format in the world for the transmission of observational weather data. It is highly standardized through the International Civil Aviation Organization (ICAO), which allows it to be understood throughout most of the world.
   API Info
Data Provided by
https://www.checkwx.com/weather/

Aviation Weather providing METAR, TAF, AIRMET, SIGMET and OUTLOOK Weather Reports
   © Info
CSS/SVG/PHP scripts were developed by weather34.com for use in the weather34 template © 2015-2021

Guide Info provided by Metar-Wikipedia